sensor_id;sensor_type;location;lat;lon;timestamp;pressure;altitude;pressure_sealevel;temperature;humidity
11676;BME280;5894;42.768;23.404;2023-07-31T00:02:04;95269.69;;;23.41;100.00
11676;BME280;5894;42.768;23.404;2023-07-31T00:04:31;95279.66;;;23.48;100.00
11676;BME280;5894;42.768;23.404;2023-07-31T00:06:57;95285.06;;;23.44;100.00
11676;BME280;5894;42.768;23.404;2023-07-31T00:09:25;95278.53;;;23.41;100.00
11676;BME280;5894;42.768;23.404;2023-07-31T00:11:52;95277.78;;;23.45;100.00
11676;BME280;5894;42.768;23.404;2023-07-31T00:14:20;95245.56;;;23.23;100.00
11676;BME280;5894;42.768;23.404;2023-07-31T00:16:47;95280.84;;;23.43;100.00
11676;BME280;5894;42.768;23.404;2023-07-31T00:19:14;95217.94;;;23.05;100.00
11676;BME280;5894;42.768;23.404;2023-07-31T00:21:41;95270.84;;;23.43;100.00
11676;BME280;5894;42.768;23.404;2023-07-31T00:24:08;95260.88;;;23.40;100.00
11676;BME280;5894;42.768;23.404;2023-07-31T00:26:35;95269.31;;;23.39;100.00
11676;BME280;5894;42.768;23.404;2023-07-31T00:29:02;95249.41;;;23.19;100.00
11676;BME280;5894;42.768;23.404;2023-07-31T00:31:31;95263.19;;;23.31;100.00
11676;BME280;5894;42.768;23.404;2023-07-31T00:33:58;95255.91;;;23.28;100.00
11676;BME280;5894;42.768;23.404;2023-07-31T00:36:25;95246.28;;;23.27;100.00
11676;BME280;5894;42.768;23.404;2023-07-31T00:38:52;95235.91;;;23.26;100.00
11676;BME280;5894;42.768;23.404;2023-07-31T00:41:19;95223.25;;;23.26;100.00
11676;BME280;5894;42.768;23.404;2023-07-31T00:43:48;95220.19;;;23.21;100.00
11676;BME280;5894;42.768;23.404;2023-07-31T00:46:15;95230.22;;;23.10;100.00
11676;BME280;5894;42.768;23.404;2023-07-31T00:48:43;95231.03;;;23.03;100.00
11676;BME280;5894;42.768;23.404;2023-07-31T00:51:10;95233.72;;;22.99;100.00
11676;BME280;5894;42.768;23.404;2023-07-31T00:53:38;95238.34;;;22.92;100.00
11676;BME280;5894;42.768;23.404;2023-07-31T00:56:06;95226.09;;;22.84;100.00
11676;BME280;5894;42.768;23.404;2023-07-31T00:58:33;95175.44;;;22.40;100.00
11676;BME280;5894;42.768;23.404;2023-07-31T01:01:00;95229.91;;;22.72;100.00
11676;BME280;5894;42.768;23.404;2023-07-31T01:03:28;95220.69;;;22.69;100.00
11676;BME280;5894;42.768;23.404;2023-07-31T01:06:05;95210.72;;;22.70;100.00
11676;BME280;5894;42.768;23.404;2023-07-31T01:08:40;95214.56;;;22.69;100.00
11676;BME280;5894;42.768;23.404;2023-07-31T01:11:22;95212.25;;;22.67;100.00
11676;BME280;5894;42.768;23.404;2023-07-31T01:13:53;95191.56;;;22.50;100.00
11676;BME280;5894;42.768;23.404;2023-07-31T01:16:20;95212.66;;;22.62;100.00
11676;BME280;5894;42.768;23.404;2023-07-31T01:18:47;95211.47;;;22.63;100.00
11676;BME280;5894;42.768;23.404;2023-07-31T01:21:27;95214.56;;;22.62;100.00
11676;BME280;5894;42.768;23.404;2023-07-31T01:24:15;95211.88;;;22.62;100.00
11676;BME280;5894;42.768;23.404;2023-07-31T01:26:53;95210.34;;;22.61;100.00
11676;BME280;5894;42.768;23.404;2023-07-31T01:29:26;95219.56;;;22.60;100.00
11676;BME280;5894;42.768;23.404;2023-07-31T01:31:56;95209.97;;;22.62;100.00
11676;BME280;5894;42.768;23.404;2023-07-31T01:34:26;95209.19;;;22.62;100.00
11676;BME280;5894;42.768;23.404;2023-07-31T01:36:54;95204.22;;;22.60;100.00
11676;BME280;5894;42.768;23.404;2023-07-31T01:39:22;95208.78;;;22.63;100.00
11676;BME280;5894;42.768;23.404;2023-07-31T01:41:51;95208.06;;;22.63;100.00
11676;BME280;5894;42.768;23.404;2023-07-31T01:44:18;95185.78;;;22.45;100.00
11676;BME280;5894;42.768;23.404;2023-07-31T01:46:45;95213.41;;;22.59;100.00
11676;BME280;5894;42.768;23.404;2023-07-31T01:49:12;95210.34;;;22.61;100.00
11676;BME280;5894;42.768;23.404;2023-07-31T01:51:39;95213.41;;;22.59;100.00
11676;BME280;5894;42.768;23.404;2023-07-31T01:54:07;95201.91;;;22.48;100.00
11676;BME280;5894;42.768;23.404;2023-07-31T01:56:34;95214.56;;;22.58;100.00
11676;BME280;5894;42.768;23.404;2023-07-31T01:59:02;95200.78;;;22.49;100.00
11676;BME280;5894;42.768;23.404;2023-07-31T02:01:29;95216.88;;;22.56;100.00
11676;BME280;5894;42.768;23.404;2023-07-31T02:03:56;95223.41;;;22.52;100.00
11676;BME280;5894;42.768;23.404;2023-07-31T02:06:23;95221.88;;;22.51;100.00
11676;BME280;5894;42.768;23.404;2023-07-31T02:08:51;95228.41;;;22.50;100.00
11676;BME280;5894;42.768;23.404;2023-07-31T02:11:18;95223.41;;;22.45;100.00
11676;BME280;5894;42.768;23.404;2023-07-31T02:13:45;95224.19;;;22.42;100.00
11676;BME280;5894;42.768;23.404;2023-07-31T02:16:13;95218.44;;;22.40;100.00
11676;BME280;5894;42.768;23.404;2023-07-31T02:18:40;95219.97;;;22.37;100.00
11676;BME280;5894;42.768;23.404;2023-07-31T02:21:07;95220.72;;;22.34;100.00
11676;BME280;5894;42.768;23.404;2023-07-31T02:23:34;95221.50;;;22.34;100.00
11676;BME280;5894;42.768;23.404;2023-07-31T02:26:01;95228.78;;;22.34;100.00
11676;BME280;5894;42.768;23.404;2023-07-31T02:28:28;95227.66;;;22.31;100.00
11676;BME280;5894;42.768;23.404;2023-07-31T02:30:56;95226.13;;;22.30;100.00
11676;BME280;5894;42.768;23.404;2023-07-31T02:33:24;95230.72;;;22.30;100.00
11676;BME280;5894;42.768;23.404;2023-07-31T02:35:51;95224.97;;;22.28;100.00
11676;BME280;5894;42.768;23.404;2023-07-31T02:38:21;95223.03;;;22.28;100.00
11676;BME280;5894;42.768;23.404;2023-07-31T02:40:48;95231.09;;;22.28;100.00
11676;BME280;5894;42.768;23.404;2023-07-31T02:43:15;95231.09;;;22.28;100.00
11676;BME280;5894;42.768;23.404;2023-07-31T02:45:42;95236.09;;;22.30;100.00
11676;BME280;5894;42.768;23.404;2023-07-31T02:48:10;95237.63;;;22.27;100.00
11676;BME280;5894;42.768;23.404;2023-07-31T02:50:39;95193.44;;;21.93;100.00
11676;BME280;5894;42.768;23.404;2023-07-31T02:53:05;95243.00;;;22.27;100.00
11676;BME280;5894;42.768;23.404;2023-07-31T02:55:33;95240.69;;;22.26;100.00
11676;BME280;5894;42.768;23.404;2023-07-31T02:57:59;95247.22;;;22.25;100.00
11676;BME280;5894;42.768;23.404;2023-07-31T03:00:27;95234.16;;;22.13;100.00
11676;BME280;5894;42.768;23.404;2023-07-31T03:02:54;95227.22;;;22.01;100.00
11676;BME280;5894;42.768;23.404;2023-07-31T03:05:21;95236.44;;;22.04;100.00
11676;BME280;5894;42.768;23.404;2023-07-31T03:07:49;95255.63;;;22.13;100.00
11676;BME280;5894;42.768;23.404;2023-07-31T03:10:16;95255.25;;;22.14;100.00
11676;BME280;5894;42.768;23.404;2023-07-31T03:12:46;95207.25;;;21.77;100.00
11676;BME280;5894;42.768;23.404;2023-07-31T03:15:13;95246.06;;;22.15;100.00
11676;BME280;5894;42.768;23.404;2023-07-31T03:17:40;95251.03;;;22.17;100.00
11676;BME280;5894;42.768;23.404;2023-07-31T03:20:08;95254.88;;;22.16;100.00
11676;BME280;5894;42.768;23.404;2023-07-31T03:22:35;95257.56;;;22.16;100.00
11676;BME280;5894;42.768;23.404;2023-07-31T03:25:05;95256.44;;;22.20;100.00
11676;BME280;5894;42.768;23.404;2023-07-31T03:27:32;95262.56;;;22.17;100.00
11676;BME280;5894;42.768;23.404;2023-07-31T03:29:59;95256.78;;;22.15;100.00
11676;BME280;5894;42.768;23.404;2023-07-31T03:32:27;95258.34;;;22.16;100.00
11676;BME280;5894;42.768;23.404;2023-07-31T03:34:54;95262.56;;;22.17;100.00
11676;BME280;5894;42.768;23.404;2023-07-31T03:37:21;95257.97;;;22.18;100.00
11676;BME280;5894;42.768;23.404;2023-07-31T03:39:48;95262.56;;;22.17;100.00
11676;BME280;5894;42.768;23.404;2023-07-31T03:42:17;95259.09;;;22.17;100.00
11676;BME280;5894;42.768;23.404;2023-07-31T03:44:44;95266.41;;;22.16;100.00
11676;BME280;5894;42.768;23.404;2023-07-31T03:47:11;95200.72;;;21.71;100.00
11676;BME280;5894;42.768;23.404;2023-07-31T03:49:38;95233.75;;;21.89;100.00
11676;BME280;5894;42.768;23.404;2023-07-31T03:52:06;95280.19;;;22.15;100.00
11676;BME280;5894;42.768;23.404;2023-07-31T03:54:33;95278.66;;;22.14;100.00
11676;BME280;5894;42.768;23.404;2023-07-31T03:57:00;95280.94;;;22.12;100.00
11676;BME280;5894;42.768;23.404;2023-07-31T03:59:28;95278.25;;;22.12;100.00
11676;BME280;5894;42.768;23.404;2023-07-31T04:01:55;95282.50;;;22.13;100.00
11676;BME280;5894;42.768;23.404;2023-07-31T04:04:22;95274.81;;;22.15;100.00
11676;BME280;5894;42.768;23.404;2023-07-31T04:06:49;95262.53;;;22.03;100.00
11676;BME280;5894;42.768;23.404;2023-07-31T04:09:17;95286.75;;;22.21;100.00
11676;BME280;5894;42.768;23.404;2023-07-31T04:11:44;95292.09;;;22.24;100.00
11676;BME280;5894;42.768;23.404;2023-07-31T04:14:10;95291.72;;;22.26;100.00
11676;BME280;5894;42.768;23.404;2023-07-31T04:16:39;95290.19;;;22.28;100.00
11676;BME280;5894;42.768;23.404;2023-07-31T04:19:06;95289.44;;;22.31;100.00
11676;BME280;5894;42.768;23.404;2023-07-31T04:21:33;95296.72;;;22.34;100.00
11676;BME280;5894;42.768;23.404;2023-07-31T04:24:00;95296.72;;;22.38;100.00
11676;BME280;5894;42.768;23.404;2023-07-31T04:26:27;95287.91;;;22.41;100.00
11676;BME280;5894;42.768;23.404;2023-07-31T04:28:54;95288.28;;;22.43;100.00
11676;BME280;5894;42.768;23.404;2023-07-31T04:31:21;95292.88;;;22.43;100.00
11676;BME280;5894;42.768;23.404;2023-07-31T04:33:50;95303.25;;;22.44;100.00
11676;BME280;5894;42.768;23.404;2023-07-31T04:36:17;95295.94;;;22.45;100.00
11676;BME280;5894;42.768;23.404;2023-07-31T04:38:44;95297.09;;;22.44;100.00
11676;BME280;5894;42.768;23.404;2023-07-31T04:41:11;95301.72;;;22.47;100.00
11676;BME280;5894;42.768;23.404;2023-07-31T04:43:38;95299.03;;;22.47;100.00
11676;BME280;5894;42.768;23.404;2023-07-31T04:46:05;95292.13;;;22.49;100.00
11676;BME280;5894;42.768;23.404;2023-07-31T04:48:32;95296.75;;;22.52;100.00
11676;BME280;5894;42.768;23.404;2023-07-31T04:51:01;95294.06;;;22.52;100.00
11676;BME280;5894;42.768;23.404;2023-07-31T04:53:28;95290.97;;;22.57;100.00
11676;BME280;5894;42.768;23.404;2023-07-31T04:55:55;95294.44;;;22.61;100.00
11676;BME280;5894;42.768;23.404;2023-07-31T04:58:22;95297.50;;;22.67;100.00
11676;BME280;5894;42.768;23.404;2023-07-31T05:00:48;95291.72;;;22.68;100.00
11676;BME280;5894;42.768;23.404;2023-07-31T05:03:15;95295.59;;;22.71;100.00
11676;BME280;5894;42.768;23.404;2023-07-31T05:05:42;95290.97;;;22.75;100.00
11676;BME280;5894;42.768;23.404;2023-07-31T05:08:11;95295.22;;;22.80;100.00
11676;BME280;5894;42.768;23.404;2023-07-31T05:10:38;95292.53;;;22.83;100.00
11676;BME280;5894;42.768;23.404;2023-07-31T05:13:05;95296.72;;;22.88;100.00
11676;BME280;5894;42.768;23.404;2023-07-31T05:15:32;95291.34;;;22.91;100.00
11676;BME280;5894;42.768;23.404;2023-07-31T05:17:59;95292.53;;;22.94;100.00
11676;BME280;5894;42.768;23.404;2023-07-31T05:20:26;95277.13;;;22.98;100.00
11676;BME280;5894;42.768;23.404;2023-07-31T05:22:53;95282.13;;;22.99;100.00
11676;BME280;5894;42.768;23.404;2023-07-31T05:25:22;95286.72;;;23.02;100.00
11676;BME280;5894;42.768;23.404;2023-07-31T05:27:49;95286.34;;;23.00;100.00
11676;BME280;5894;42.768;23.404;2023-07-31T05:30:17;95279.44;;;23.03;100.00
11676;BME280;5894;42.768;23.404;2023-07-31T05:32:44;95247.56;;;22.87;100.00
11676;BME280;5894;42.768;23.404;2023-07-31T05:35:11;95282.44;;;23.16;100.00
11676;BME280;5894;42.768;23.404;2023-07-31T05:37:38;95283.22;;;23.23;100.00
11676;BME280;5894;42.768;23.404;2023-07-31T05:40:06;95279.69;;;23.37;100.00
11676;BME280;5894;42.768;23.404;2023-07-31T05:42:35;95283.56;;;23.36;100.00
11676;BME280;5894;42.768;23.404;2023-07-31T05:45:05;95282.38;;;23.37;100.00
11676;BME280;5894;42.768;23.404;2023-07-31T05:47:33;95232.94;;;22.99;100.00
11676;BME280;5894;42.768;23.404;2023-07-31T05:50:00;95278.91;;;23.51;100.00
11676;BME280;5894;42.768;23.404;2023-07-31T05:52:27;95277.75;;;23.55;100.00
11676;BME280;5894;42.768;23.404;2023-07-31T05:54:54;95282.72;;;23.64;100.00
11676;BME280;5894;42.768;23.404;2023-07-31T05:57:21;95268.88;;;23.62;100.00
11676;BME280;5894;42.768;23.404;2023-07-31T05:59:50;95279.16;;;23.77;100.00
11676;BME280;5894;42.768;23.404;2023-07-31T06:02:18;95290.25;;;23.90;100.00
11676;BME280;5894;42.768;23.404;2023-07-31T06:04:46;95291.75;;;24.02;100.00
11676;BME280;5894;42.768;23.404;2023-07-31T06:07:13;95297.06;;;24.12;100.00
11676;BME280;5894;42.768;23.404;2023-07-31T06:09:40;95298.56;;;24.28;100.00
11676;BME280;5894;42.768;23.404;2023-07-31T06:12:07;95299.97;;;24.43;100.00
11676;BME280;5894;42.768;23.404;2023-07-31T06:14:35;95304.22;;;24.40;100.00
11676;BME280;5894;42.768;23.404;2023-07-31T06:17:04;95302.28;;;24.44;100.00
11676;BME280;5894;42.768;23.404;2023-07-31T06:19:32;95302.66;;;24.43;100.00
11676;BME280;5894;42.768;23.404;2023-07-31T06:21:59;95299.94;;;24.50;100.00
11676;BME280;5894;42.768;23.404;2023-07-31T06:24:26;95301.78;;;24.57;100.00
11676;BME280;5894;42.768;23.404;2023-07-31T06:26:53;95309.81;;;24.67;100.00
11676;BME280;5894;42.768;23.404;2023-07-31T06:29:20;95305.16;;;24.68;100.00
11676;BME280;5894;42.768;23.404;2023-07-31T06:31:47;95304.34;;;24.74;100.00
11676;BME280;5894;42.768;23.404;2023-07-31T06:34:15;95301.16;;;24.86;100.00
11676;BME280;5894;42.768;23.404;2023-07-31T06:36:42;95299.16;;;24.98;100.00
11676;BME280;5894;42.768;23.404;2023-07-31T06:39:09;95295.59;;;25.08;100.00
11676;BME280;5894;42.768;23.404;2023-07-31T06:41:38;95297.09;;;25.12;100.00
11676;BME280;5894;42.768;23.404;2023-07-31T06:44:08;95308.22;;;25.14;100.00
11676;BME280;5894;42.768;23.404;2023-07-31T06:46:35;95307.13;;;25.12;99.75
11676;BME280;5894;42.768;23.404;2023-07-31T06:49:02;95299.06;;;25.05;99.23
11676;BME280;5894;42.768;23.404;2023-07-31T06:51:31;95294.13;;;25.00;98.48
11676;BME280;5894;42.768;23.404;2023-07-31T06:53:58;95297.91;;;25.06;98.76
11676;BME280;5894;42.768;23.404;2023-07-31T06:56:25;95294.78;;;25.11;97.99
11676;BME280;5894;42.768;23.404;2023-07-31T06:58:53;95296.72;;;25.10;97.00
11676;BME280;5894;42.768;23.404;2023-07-31T07:01:20;95297.50;;;25.11;97.60
11676;BME280;5894;42.768;23.404;2023-07-31T07:03:47;95283.63;;;25.09;96.19
11676;BME280;5894;42.768;23.404;2023-07-31T07:06:16;95296.63;;;25.21;95.58
11676;BME280;5894;42.768;23.404;2023-07-31T07:08:44;95297.03;;;25.16;95.47
11676;BME280;5894;42.768;23.404;2023-07-31T07:11:11;95304.75;;;25.17;93.84
11676;BME280;5894;42.768;23.404;2023-07-31T07:13:39;95300.09;;;25.21;92.82
11676;BME280;5894;42.768;23.404;2023-07-31T07:16:06;95302.28;;;25.30;90.92
11676;BME280;5894;42.768;23.404;2023-07-31T07:18:33;95296.03;;;25.37;90.76
11676;BME280;5894;42.768;23.404;2023-07-31T07:21:00;95273.78;;;25.29;91.08
11676;BME280;5894;42.768;23.404;2023-07-31T07:23:28;95290.41;;;25.62;91.38
11676;BME280;5894;42.768;23.404;2023-07-31T07:25:56;95295.59;;;25.76;91.64
11676;BME280;5894;42.768;23.404;2023-07-31T07:28:23;95299.03;;;25.80;88.32
11676;BME280;5894;42.768;23.404;2023-07-31T07:30:51;95290.78;;;25.90;88.30
11676;BME280;5894;42.768;23.404;2023-07-31T07:33:19;95292.47;;;26.08;87.73
11676;BME280;5894;42.768;23.404;2023-07-31T07:35:46;95294.59;;;26.23;85.75
11676;BME280;5894;42.768;23.404;2023-07-31T07:38:14;95288.72;;;26.28;84.57
11676;BME280;5894;42.768;23.404;2023-07-31T07:40:41;95248.47;;;26.07;83.55
11676;BME280;5894;42.768;23.404;2023-07-31T07:43:10;95280.19;;;26.34;82.23
11676;BME280;5894;42.768;23.404;2023-07-31T07:45:37;95309.78;;;26.67;82.49
11676;BME280;5894;42.768;23.404;2023-07-31T07:48:04;95310.34;;;26.79;78.90
11676;BME280;5894;42.768;23.404;2023-07-31T07:50:31;95311.28;;;26.95;78.62
11676;BME280;5894;42.768;23.404;2023-07-31T07:52:58;95302.06;;;27.13;77.86
11676;BME280;5894;42.768;23.404;2023-07-31T07:55:26;95300.56;;;27.31;76.87
11676;BME280;5894;42.768;23.404;2023-07-31T07:57:53;95307.09;;;27.34;74.32
11676;BME280;5894;42.768;23.404;2023-07-31T08:00:23;95289.66;;;27.35;71.56
11676;BME280;5894;42.768;23.404;2023-07-31T08:02:50;95312.06;;;27.59;72.82
11676;BME280;5894;42.768;23.404;2023-07-31T08:05:17;95307.22;;;27.70;72.04
11676;BME280;5894;42.768;23.404;2023-07-31T08:07:44;95311.09;;;28.05;69.97
11676;BME280;5894;42.768;23.404;2023-07-31T08:10:11;95303.72;;;28.25;69.54
11676;BME280;5894;42.768;23.404;2023-07-31T08:12:38;95298.81;;;28.36;64.93
11676;BME280;5894;42.768;23.404;2023-07-31T08:15:06;95302.91;;;28.61;65.65
11676;BME280;5894;42.768;23.404;2023-07-31T08:17:34;95313.16;;;28.69;63.66
11676;BME280;5894;42.768;23.404;2023-07-31T08:20:01;95314.94;;;28.76;61.70
11676;BME280;5894;42.768;23.404;2023-07-31T08:22:28;95315.66;;;28.80;61.67
11676;BME280;5894;42.768;23.404;2023-07-31T08:24:56;95313.69;;;28.80;60.65
11676;BME280;5894;42.768;23.404;2023-07-31T08:27:23;95322.59;;;28.81;59.70
11676;BME280;5894;42.768;23.404;2023-07-31T08:29:51;95318.38;;;28.80;59.79
11676;BME280;5894;42.768;23.404;2023-07-31T08:32:18;95314.63;;;28.90;59.53
11676;BME280;5894;42.768;23.404;2023-07-31T08:34:47;95316.22;;;29.04;60.39
11676;BME280;5894;42.768;23.404;2023-07-31T08:37:14;95312.22;;;29.08;60.42
11676;BME280;5894;42.768;23.404;2023-07-31T08:39:41;95312.00;;;29.03;58.91
11676;BME280;5894;42.768;23.404;2023-07-31T08:42:08;95311.50;;;28.92;59.00
11676;BME280;5894;42.768;23.404;2023-07-31T08:44:36;95319.44;;;28.99;59.21
11676;BME280;5894;42.768;23.404;2023-07-31T08:47:04;95301.66;;;28.81;57.81
11676;BME280;5894;42.768;23.404;2023-07-31T08:49:32;95301.81;;;28.74;57.73
11676;BME280;5894;42.768;23.404;2023-07-31T08:52:02;95304.25;;;28.69;59.18
11676;BME280;5894;42.768;23.404;2023-07-31T08:54:29;95313.84;;;28.57;59.96
11676;BME280;5894;42.768;23.404;2023-07-31T08:56:59;95302.31;;;28.53;60.03
11676;BME280;5894;42.768;23.404;2023-07-31T08:59:28;95306.88;;;28.40;61.14
11676;BME280;5894;42.768;23.404;2023-07-31T09:01:59;95306.59;;;28.18;61.57
11676;BME280;5894;42.768;23.404;2023-07-31T09:04:30;95305.22;;;28.10;61.23
11676;BME280;5894;42.768;23.404;2023-07-31T09:07:01;95291.50;;;27.81;61.35
11676;BME280;5894;42.768;23.404;2023-07-31T09:09:30;95309.06;;;27.73;61.30
11676;BME280;5894;42.768;23.404;2023-07-31T09:11:57;95309.13;;;27.50;60.94
11676;BME280;5894;42.768;23.404;2023-07-31T09:14:25;95301.47;;;27.45;62.42
11676;BME280;5894;42.768;23.404;2023-07-31T09:16:54;95297.88;;;27.51;62.60
11676;BME280;5894;42.768;23.404;2023-07-31T09:19:29;95295.41;;;27.60;63.52
11676;BME280;5894;42.768;23.404;2023-07-31T09:21:56;95294.50;;;27.67;65.25
11676;BME280;5894;42.768;23.404;2023-07-31T09:24:28;95292.13;;;27.69;65.61
11676;BME280;5894;42.768;23.404;2023-07-31T09:26:56;95303.78;;;27.66;64.70
11676;BME280;5894;42.768;23.404;2023-07-31T09:29:24;95285.25;;;27.64;63.45
11676;BME280;5894;42.768;23.404;2023-07-31T09:31:52;95253.16;;;27.43;62.66
11676;BME280;5894;42.768;23.404;2023-07-31T09:34:20;95249.34;;;27.40;62.60
11676;BME280;5894;42.768;23.404;2023-07-31T09:36:48;95279.16;;;27.60;61.44
11676;BME280;5894;42.768;23.404;2023-07-31T09:39:17;95248.34;;;27.31;60.89
11676;BME280;5894;42.768;23.404;2023-07-31T09:41:48;95283.81;;;27.60;58.90
11676;BME280;5894;42.768;23.404;2023-07-31T09:44:19;95284.47;;;27.64;58.70
11676;BME280;5894;42.768;23.404;2023-07-31T09:46:46;95280.09;;;27.50;57.77
11676;BME280;5894;42.768;23.404;2023-07-31T09:49:14;95274.25;;;27.52;58.12
11676;BME280;5894;42.768;23.404;2023-07-31T09:51:42;95269.13;;;27.37;59.41
11676;BME280;5894;42.768;23.404;2023-07-31T09:54:10;95270.50;;;27.46;60.92
11676;BME280;5894;42.768;23.404;2023-07-31T09:56:41;95270.44;;;27.49;59.48
11676;BME280;5894;42.768;23.404;2023-07-31T09:59:12;95255.84;;;27.43;58.56
11676;BME280;5894;42.768;23.404;2023-07-31T10:01:40;95268.56;;;27.46;58.09
11676;BME280;5894;42.768;23.404;2023-07-31T10:04:09;95211.50;;;27.17;57.48
11676;BME280;5894;42.768;23.404;2023-07-31T10:06:37;95280.94;;;27.67;55.90
11676;BME280;5894;42.768;23.404;2023-07-31T10:09:06;95251.78;;;27.55;54.95
11676;BME280;5894;42.768;23.404;2023-07-31T10:11:37;95269.34;;;27.66;55.71
11676;BME280;5894;42.768;23.404;2023-07-31T10:14:05;95267.75;;;27.69;54.71
11676;BME280;5894;42.768;23.404;2023-07-31T10:16:38;95268.16;;;27.67;54.83
11676;BME280;5894;42.768;23.404;2023-07-31T10:19:06;95275.47;;;27.70;54.05
11676;BME280;5894;42.768;23.404;2023-07-31T10:21:35;95270.31;;;27.76;54.61
11676;BME280;5894;42.768;23.404;2023-07-31T10:24:04;95278.28;;;27.83;56.16
11676;BME280;5894;42.768;23.404;2023-07-31T10:26:32;95270.78;;;27.91;55.18
11676;BME280;5894;42.768;23.404;2023-07-31T10:28:59;95270.44;;;28.05;56.66
11676;BME280;5894;42.768;23.404;2023-07-31T10:31:27;95257.94;;;28.11;55.61
11676;BME280;5894;42.768;23.404;2023-07-31T10:33:57;95260.91;;;28.17;55.95
11676;BME280;5894;42.768;23.404;2023-07-31T10:36:25;95262.84;;;28.16;54.09
11676;BME280;5894;42.768;23.404;2023-07-31T10:38:52;95263.78;;;28.09;52.46
11676;BME280;5894;42.768;23.404;2023-07-31T10:41:28;95258.06;;;28.04;53.47
11676;BME280;5894;42.768;23.404;2023-07-31T10:43:57;95258.19;;;28.00;53.73
11676;BME280;5894;42.768;23.404;2023-07-31T10:46:24;95264.97;;;28.08;54.40
11676;BME280;5894;42.768;23.404;2023-07-31T10:48:59;95262.47;;;27.98;53.86
11676;BME280;5894;42.768;23.404;2023-07-31T10:51:32;95259.94;;;28.07;54.38
11676;BME280;5894;42.768;23.404;2023-07-31T10:54:11;95256.41;;;28.10;52.59
11676;BME280;5894;42.768;23.404;2023-07-31T10:56:38;95258.69;;;28.11;52.31
11676;BME280;5894;42.768;23.404;2023-07-31T10:59:05;95243.19;;;28.12;52.32
11676;BME280;5894;42.768;23.404;2023-07-31T11:01:52;95253.63;;;28.13;53.80
11676;BME280;5894;42.768;23.404;2023-07-31T11:04:24;95249.28;;;28.16;53.51
11676;BME280;5894;42.768;23.404;2023-07-31T11:06:56;95249.25;;;28.20;53.10
11676;BME280;5894;42.768;23.404;2023-07-31T11:09:24;95244.25;;;28.18;54.59
11676;BME280;5894;42.768;23.404;2023-07-31T11:11:54;95247.88;;;28.28;53.51
11676;BME280;5894;42.768;23.404;2023-07-31T11:14:21;95242.28;;;28.35;54.44
11676;BME280;5894;42.768;23.404;2023-07-31T11:16:49;95246.38;;;28.43;54.15
11676;BME280;5894;42.768;23.404;2023-07-31T11:19:23;95238.25;;;28.43;51.19
11676;BME280;5894;42.768;23.404;2023-07-31T11:21:51;95244.16;;;28.38;50.61
11676;BME280;5894;42.768;23.404;2023-07-31T11:24:18;95231.78;;;28.37;51.23
11676;BME280;5894;42.768;23.404;2023-07-31T11:26:50;95238.91;;;28.47;50.23
11676;BME280;5894;42.768;23.404;2023-07-31T11:29:18;95227.41;;;28.43;50.92
11676;BME280;5894;42.768;23.404;2023-07-31T11:31:46;95242.47;;;28.60;51.35
11676;BME280;5894;42.768;23.404;2023-07-31T11:34:14;95232.59;;;28.66;51.16
11676;BME280;5894;42.768;23.404;2023-07-31T11:36:53;95230.34;;;28.65;48.88
11676;BME280;5894;42.768;23.404;2023-07-31T11:39:21;95231.09;;;28.65;49.29
11676;BME280;5894;42.768;23.404;2023-07-31T11:41:48;95234.91;;;28.68;49.09
11676;BME280;5894;42.768;23.404;2023-07-31T11:44:15;95241.19;;;28.65;50.95
11676;BME280;5894;42.768;23.404;2023-07-31T11:46:42;95227.53;;;28.68;50.99
11676;BME280;5894;42.768;23.404;2023-07-31T11:49:09;95210.66;;;28.61;52.25
11676;BME280;5894;42.768;23.404;2023-07-31T11:51:36;95142.91;;;28.12;50.98
11676;BME280;5894;42.768;23.404;2023-07-31T11:54:05;95219.63;;;28.74;52.36
11676;BME280;5894;42.768;23.404;2023-07-31T11:56:33;95226.25;;;28.89;52.68
11676;BME280;5894;42.768;23.404;2023-07-31T11:59:01;95210.47;;;29.13;49.57
11676;BME280;5894;42.768;23.404;2023-07-31T12:01:31;95210.88;;;29.28;49.48
11676;BME280;5894;42.768;23.404;2023-07-31T12:03:58;95216.69;;;29.42;48.39
11676;BME280;5894;42.768;23.404;2023-07-31T12:06:32;95210.16;;;29.52;47.40
11676;BME280;5894;42.768;23.404;2023-07-31T12:09:02;95207.38;;;29.56;46.37
11676;BME280;5894;42.768;23.404;2023-07-31T12:11:31;95188.69;;;29.58;46.44
11676;BME280;5894;42.768;23.404;2023-07-31T12:13:58;95197.22;;;29.44;45.76
11676;BME280;5894;42.768;23.404;2023-07-31T12:16:26;95201.31;;;29.36;46.03
11676;BME280;5894;42.768;23.404;2023-07-31T12:18:53;95203.31;;;29.19;46.09
11676;BME280;5894;42.768;23.404;2023-07-31T12:21:20;95206.25;;;29.12;48.04
11676;BME280;5894;42.768;23.404;2023-07-31T12:23:47;95192.28;;;28.97;47.25
11676;BME280;5894;42.768;23.404;2023-07-31T12:26:16;95195.97;;;28.91;46.98
11676;BME280;5894;42.768;23.404;2023-07-31T12:28:45;95201.06;;;28.89;48.16
11676;BME280;5894;42.768;23.404;2023-07-31T12:31:14;95195.31;;;28.70;49.51
11676;BME280;5894;42.768;23.404;2023-07-31T12:33:42;95200.81;;;28.67;51.39
11676;BME280;5894;42.768;23.404;2023-07-31T12:36:11;95196.75;;;28.59;50.41
11676;BME280;5894;42.768;23.404;2023-07-31T12:38:38;95161.81;;;28.32;50.60
11676;BME280;5894;42.768;23.404;2023-07-31T12:41:05;95201.28;;;28.33;51.24
11676;BME280;5894;42.768;23.404;2023-07-31T12:43:33;95188.13;;;28.15;53.25
11676;BME280;5894;42.768;23.404;2023-07-31T12:46:01;95160.81;;;27.73;55.22
11676;BME280;5894;42.768;23.404;2023-07-31T12:48:28;95191.50;;;27.87;56.85
11676;BME280;5894;42.768;23.404;2023-07-31T12:50:55;95192.91;;;27.75;55.52
11676;BME280;5894;42.768;23.404;2023-07-31T12:53:22;95190.91;;;27.79;54.42
11676;BME280;5894;42.768;23.404;2023-07-31T12:55:49;95189.72;;;27.80;54.66
11676;BME280;5894;42.768;23.404;2023-07-31T12:58:16;95182.34;;;27.81;53.86
11676;BME280;5894;42.768;23.404;2023-07-31T13:00:43;95177.59;;;27.85;53.15